sensor_id;sensor_type;location;lat;lon;timestamp;temperature;humidity
20057;DHT22;10189;49.546;7.906;2023-07-20T00:01:49;15.20;72.60
20057;DHT22;10189;49.546;7.906;2023-07-20T00:04:15;15.10;73.00
20057;DHT22;10189;49.546;7.906;2023-07-20T00:06:40;15.00;73.60
20057;DHT22;10189;49.546;7.906;2023-07-20T00:09:09;14.90;73.80
20057;DHT22;10189;49.546;7.906;2023-07-20T00:11:36;14.80;74.10
20057;DHT22;10189;49.546;7.906;2023-07-20T00:14:04;14.70;74.70
20057;DHT22;10189;49.546;7.906;2023-07-20T00:16:31;14.60;75.00
20057;DHT22;10189;49.546;7.906;2023-07-20T00:18:58;14.50;75.30
20057;DHT22;10189;49.546;7.906;2023-07-20T00:21:23;14.50;75.50
20057;DHT22;10189;49.546;7.906;2023-07-20T00:23:50;14.40;75.90
20057;DHT22;10189;49.546;7.906;2023-07-20T00:26:16;14.30;76.20
20057;DHT22;10189;49.546;7.906;2023-07-20T00:28:42;14.20;76.60
20057;DHT22;10189;49.546;7.906;2023-07-20T00:31:09;14.10;77.10
20057;DHT22;10189;49.546;7.906;2023-07-20T00:33:36;14.00;77.40
20057;DHT22;10189;49.546;7.906;2023-07-20T00:36:02;14.00;77.70
20057;DHT22;10189;49.546;7.906;2023-07-20T00:38:28;13.90;77.90
20057;DHT22;10189;49.546;7.906;2023-07-20T00:40:53;13.80;78.30
20057;DHT22;10189;49.546;7.906;2023-07-20T00:43:19;13.80;78.70
20057;DHT22;10189;49.546;7.906;2023-07-20T00:45:45;13.70;79.20
20057;DHT22;10189;49.546;7.906;2023-07-20T00:48:12;13.60;79.50
20057;DHT22;10189;49.546;7.906;2023-07-20T00:50:39;13.60;79.60
20057;DHT22;10189;49.546;7.906;2023-07-20T00:53:06;13.50;80.10
20057;DHT22;10189;49.546;7.906;2023-07-20T00:55:33;13.40;80.60
20057;DHT22;10189;49.546;7.906;2023-07-20T00:57:59;13.30;81.00
20057;DHT22;10189;49.546;7.906;2023-07-20T01:00:26;13.30;81.20
20057;DHT22;10189;49.546;7.906;2023-07-20T01:02:53;13.20;81.40
20057;DHT22;10189;49.546;7.906;2023-07-20T01:05:20;13.10;81.80
20057;DHT22;10189;49.546;7.906;2023-07-20T01:07:53;13.10;82.10
20057;DHT22;10189;49.546;7.906;2023-07-20T01:13:23;12.90;82.60
20057;DHT22;10189;49.546;7.906;2023-07-20T01:16:00;12.90;82.80
20057;DHT22;10189;49.546;7.906;2023-07-20T01:18:27;12.80;83.20
20057;DHT22;10189;49.546;7.906;2023-07-20T01:21:06;12.80;83.30
20057;DHT22;10189;49.546;7.906;2023-07-20T01:26:41;12.70;83.70
20057;DHT22;10189;49.546;7.906;2023-07-20T01:29:33;12.70;84.20
20057;DHT22;10189;49.546;7.906;2023-07-20T01:32:31;12.60;84.50
20057;DHT22;10189;49.546;7.906;2023-07-20T01:34:58;12.50;85.00
20057;DHT22;10189;49.546;7.906;2023-07-20T01:37:26;12.40;85.30
20057;DHT22;10189;49.546;7.906;2023-07-20T01:39:54;12.40;85.60
20057;DHT22;10189;49.546;7.906;2023-07-20T01:42:24;12.30;85.80
20057;DHT22;10189;49.546;7.906;2023-07-20T01:44:51;12.30;86.10
20057;DHT22;10189;49.546;7.906;2023-07-20T01:47:23;12.30;86.20
20057;DHT22;10189;49.546;7.906;2023-07-20T01:49:49;12.30;86.20
20057;DHT22;10189;49.546;7.906;2023-07-20T01:52:15;12.20;86.40
20057;DHT22;10189;49.546;7.906;2023-07-20T01:54:41;12.20;86.40
20057;DHT22;10189;49.546;7.906;2023-07-20T01:57:06;12.20;86.70
20057;DHT22;10189;49.546;7.906;2023-07-20T01:59:32;12.10;87.00
20057;DHT22;10189;49.546;7.906;2023-07-20T02:01:58;12.10;87.20
20057;DHT22;10189;49.546;7.906;2023-07-20T02:04:24;12.00;87.40
20057;DHT22;10189;49.546;7.906;2023-07-20T02:06:50;12.00;87.50
20057;DHT22;10189;49.546;7.906;2023-07-20T02:09:16;12.00;87.60
20057;DHT22;10189;49.546;7.906;2023-07-20T02:11:42;11.90;87.90
20057;DHT22;10189;49.546;7.906;2023-07-20T02:14:07;11.90;88.20
20057;DHT22;10189;49.546;7.906;2023-07-20T02:16:33;11.80;88.40
20057;DHT22;10189;49.546;7.906;2023-07-20T02:18:59;11.80;88.60
20057;DHT22;10189;49.546;7.906;2023-07-20T02:21:25;11.80;88.90
20057;DHT22;10189;49.546;7.906;2023-07-20T02:23:51;11.80;88.80
20057;DHT22;10189;49.546;7.906;2023-07-20T02:26:17;11.70;89.10
20057;DHT22;10189;49.546;7.906;2023-07-20T02:28:42;11.70;89.30
20057;DHT22;10189;49.546;7.906;2023-07-20T02:31:08;11.60;89.60
20057;DHT22;10189;49.546;7.906;2023-07-20T02:33:34;11.60;89.60
20057;DHT22;10189;49.546;7.906;2023-07-20T02:36:00;11.60;89.70
20057;DHT22;10189;49.546;7.906;2023-07-20T02:38:26;11.60;90.10
20057;DHT22;10189;49.546;7.906;2023-07-20T02:40:52;11.50;90.10
20057;DHT22;10189;49.546;7.906;2023-07-20T02:43:17;11.50;90.20
20057;DHT22;10189;49.546;7.906;2023-07-20T02:45:45;11.40;90.30
20057;DHT22;10189;49.546;7.906;2023-07-20T02:48:10;11.30;90.60
20057;DHT22;10189;49.546;7.906;2023-07-20T02:50:36;11.30;91.10
20057;DHT22;10189;49.546;7.906;2023-07-20T02:53:02;11.30;91.20
20057;DHT22;10189;49.546;7.906;2023-07-20T02:55:28;11.30;91.50
20057;DHT22;10189;49.546;7.906;2023-07-20T02:57:54;11.30;91.60
20057;DHT22;10189;49.546;7.906;2023-07-20T03:00:20;11.20;91.80
20057;DHT22;10189;49.546;7.906;2023-07-20T03:02:48;11.20;92.20
20057;DHT22;10189;49.546;7.906;2023-07-20T03:05:16;11.20;92.30
20057;DHT22;10189;49.546;7.906;2023-07-20T03:07:42;11.20;92.50
20057;DHT22;10189;49.546;7.906;2023-07-20T03:10:09;11.20;92.80
20057;DHT22;10189;49.546;7.906;2023-07-20T03:12:35;11.20;92.70
20057;DHT22;10189;49.546;7.906;2023-07-20T03:15:03;11.20;93.00
20057;DHT22;10189;49.546;7.906;2023-07-20T03:17:29;11.20;92.90
20057;DHT22;10189;49.546;7.906;2023-07-20T03:19:55;11.10;93.10
20057;DHT22;10189;49.546;7.906;2023-07-20T03:22:22;11.20;93.20
20057;DHT22;10189;49.546;7.906;2023-07-20T03:24:50;11.20;93.30
20057;DHT22;10189;49.546;7.906;2023-07-20T03:27:16;11.20;93.60
20057;DHT22;10189;49.546;7.906;2023-07-20T03:29:42;11.20;93.50
20057;DHT22;10189;49.546;7.906;2023-07-20T03:32:10;11.20;93.50
20057;DHT22;10189;49.546;7.906;2023-07-20T03:34:36;11.20;93.60
20057;DHT22;10189;49.546;7.906;2023-07-20T03:37:02;11.30;93.20
20057;DHT22;10189;49.546;7.906;2023-07-20T03:39:30;11.20;93.40
20057;DHT22;10189;49.546;7.906;2023-07-20T03:41:57;11.30;93.40
20057;DHT22;10189;49.546;7.906;2023-07-20T03:44:24;11.30;93.20
20057;DHT22;10189;49.546;7.906;2023-07-20T03:46:50;11.30;93.00
20057;DHT22;10189;49.546;7.906;2023-07-20T03:49:16;11.40;92.60
20057;DHT22;10189;49.546;7.906;2023-07-20T03:51:43;11.40;92.40
20057;DHT22;10189;49.546;7.906;2023-07-20T03:54:09;11.40;92.60
20057;DHT22;10189;49.546;7.906;2023-07-20T03:56:35;11.40;92.90
20057;DHT22;10189;49.546;7.906;2023-07-20T03:59:01;11.50;92.90
20057;DHT22;10189;49.546;7.906;2023-07-20T04:01:27;11.50;92.70
20057;DHT22;10189;49.546;7.906;2023-07-20T04:03:53;11.60;92.70
20057;DHT22;10189;49.546;7.906;2023-07-20T04:06:19;11.60;92.60
20057;DHT22;10189;49.546;7.906;2023-07-20T04:08:45;11.60;92.50
20057;DHT22;10189;49.546;7.906;2023-07-20T04:11:12;11.60;92.40
20057;DHT22;10189;49.546;7.906;2023-07-20T04:13:39;11.60;92.30
20057;DHT22;10189;49.546;7.906;2023-07-20T04:16:05;11.70;92.10
20057;DHT22;10189;49.546;7.906;2023-07-20T04:18:31;11.70;91.80
20057;DHT22;10189;49.546;7.906;2023-07-20T04:20:57;11.70;91.90
20057;DHT22;10189;49.546;7.906;2023-07-20T04:23:22;11.70;91.90
20057;DHT22;10189;49.546;7.906;2023-07-20T04:25:50;11.70;92.00
20057;DHT22;10189;49.546;7.906;2023-07-20T04:28:17;11.80;91.70
20057;DHT22;10189;49.546;7.906;2023-07-20T04:30:49;11.80;91.70
20057;DHT22;10189;49.546;7.906;2023-07-20T04:33:18;11.80;91.80
20057;DHT22;10189;49.546;7.906;2023-07-20T04:38:19;11.90;91.90
20057;DHT22;10189;49.546;7.906;2023-07-20T04:40:50;11.90;92.00
20057;DHT22;10189;49.546;7.906;2023-07-20T04:43:17;12.10;92.40
20057;DHT22;10189;49.546;7.906;2023-07-20T04:45:44;12.30;92.20
20057;DHT22;10189;49.546;7.906;2023-07-20T04:48:11;12.50;90.30
20057;DHT22;10189;49.546;7.906;2023-07-20T04:50:44;12.70;89.20
20057;DHT22;10189;49.546;7.906;2023-07-20T04:53:12;13.00;87.70
20057;DHT22;10189;49.546;7.906;2023-07-20T04:55:40;13.20;87.20
20057;DHT22;10189;49.546;7.906;2023-07-20T04:58:07;13.40;86.00
20057;DHT22;10189;49.546;7.906;2023-07-20T05:00:35;13.70;85.40
20057;DHT22;10189;49.546;7.906;2023-07-20T05:03:03;14.00;85.00
20057;DHT22;10189;49.546;7.906;2023-07-20T05:05:31;14.30;83.40
20057;DHT22;10189;49.546;7.906;2023-07-20T05:07:57;14.60;82.00
20057;DHT22;10189;49.546;7.906;2023-07-20T05:10:23;14.80;80.90
20057;DHT22;10189;49.546;7.906;2023-07-20T05:12:49;15.00;79.10
20057;DHT22;10189;49.546;7.906;2023-07-20T05:15:15;15.30;78.50
20057;DHT22;10189;49.546;7.906;2023-07-20T05:17:41;15.50;78.60
20057;DHT22;10189;49.546;7.906;2023-07-20T05:20:08;15.70;78.20
20057;DHT22;10189;49.546;7.906;2023-07-20T05:22:38;15.80;77.80
20057;DHT22;10189;49.546;7.906;2023-07-20T05:25:07;15.90;76.40
20057;DHT22;10189;49.546;7.906;2023-07-20T05:27:34;16.00;76.40
20057;DHT22;10189;49.546;7.906;2023-07-20T05:30:02;16.10;75.10
20057;DHT22;10189;49.546;7.906;2023-07-20T05:32:28;16.30;76.00
20057;DHT22;10189;49.546;7.906;2023-07-20T05:34:54;16.40;75.40
20057;DHT22;10189;49.546;7.906;2023-07-20T05:37:21;16.50;73.80
20057;DHT22;10189;49.546;7.906;2023-07-20T05:39:47;16.60;73.80
20057;DHT22;10189;49.546;7.906;2023-07-20T05:42:13;16.70;73.90
20057;DHT22;10189;49.546;7.906;2023-07-20T05:44:40;16.80;73.10
20057;DHT22;10189;49.546;7.906;2023-07-20T05:47:06;16.80;74.40
20057;DHT22;10189;49.546;7.906;2023-07-20T05:49:34;16.90;72.60
20057;DHT22;10189;49.546;7.906;2023-07-20T05:52:00;17.00;72.90
20057;DHT22;10189;49.546;7.906;2023-07-20T05:54:26;17.00;72.50
20057;DHT22;10189;49.546;7.906;2023-07-20T05:56:53;17.10;73.00
20057;DHT22;10189;49.546;7.906;2023-07-20T05:59:19;17.20;71.20
20057;DHT22;10189;49.546;7.906;2023-07-20T06:01:45;17.40;71.90
20057;DHT22;10189;49.546;7.906;2023-07-20T06:04:14;17.40;71.80
20057;DHT22;10189;49.546;7.906;2023-07-20T06:06:40;17.50;70.80
20057;DHT22;10189;49.546;7.906;2023-07-20T06:09:06;17.60;70.80
20057;DHT22;10189;49.546;7.906;2023-07-20T06:11:35;17.70;71.30
20057;DHT22;10189;49.546;7.906;2023-07-20T06:14:01;17.70;71.30
20057;DHT22;10189;49.546;7.906;2023-07-20T06:16:27;18.00;70.50
20057;DHT22;10189;49.546;7.906;2023-07-20T06:18:53;18.10;70.20
20057;DHT22;10189;49.546;7.906;2023-07-20T06:21:19;18.30;69.50
20057;DHT22;10189;49.546;7.906;2023-07-20T06:23:45;18.60;67.80
20057;DHT22;10189;49.546;7.906;2023-07-20T06:26:11;18.80;67.70
20057;DHT22;10189;49.546;7.906;2023-07-20T06:28:37;18.70;67.20
20057;DHT22;10189;49.546;7.906;2023-07-20T06:31:03;18.70;68.30
20057;DHT22;10189;49.546;7.906;2023-07-20T06:33:30;18.60;67.40
20057;DHT22;10189;49.546;7.906;2023-07-20T06:35:56;18.60;67.30
20057;DHT22;10189;49.546;7.906;2023-07-20T06:38:24;18.50;68.10
20057;DHT22;10189;49.546;7.906;2023-07-20T06:40:50;18.60;68.10
20057;DHT22;10189;49.546;7.906;2023-07-20T06:43:16;18.80;68.30
20057;DHT22;10189;49.546;7.906;2023-07-20T06:45:42;18.90;67.30
20057;DHT22;10189;49.546;7.906;2023-07-20T06:48:09;19.00;66.70
20057;DHT22;10189;49.546;7.906;2023-07-20T06:50:35;19.00;66.70
20057;DHT22;10189;49.546;7.906;2023-07-20T06:53:01;19.10;66.30
20057;DHT22;10189;49.546;7.906;2023-07-20T06:55:29;19.10;65.60
20057;DHT22;10189;49.546;7.906;2023-07-20T06:57:55;19.10;65.90
20057;DHT22;10189;49.546;7.906;2023-07-20T07:00:21;19.20;66.90
20057;DHT22;10189;49.546;7.906;2023-07-20T07:02:47;19.30;65.50
20057;DHT22;10189;49.546;7.906;2023-07-20T07:05:13;19.40;65.30
20057;DHT22;10189;49.546;7.906;2023-07-20T07:07:41;19.50;64.90
20057;DHT22;10189;49.546;7.906;2023-07-20T07:10:07;19.70;64.60
20057;DHT22;10189;49.546;7.906;2023-07-20T07:12:34;19.80;64.40
20057;DHT22;10189;49.546;7.906;2023-07-20T07:15:04;19.90;65.30
20057;DHT22;10189;49.546;7.906;2023-07-20T07:17:33;20.10;64.30
20057;DHT22;10189;49.546;7.906;2023-07-20T07:20:00;20.00;63.60
20057;DHT22;10189;49.546;7.906;2023-07-20T07:22:26;20.00;63.00
20057;DHT22;10189;49.546;7.906;2023-07-20T07:24:52;20.00;61.50
20057;DHT22;10189;49.546;7.906;2023-07-20T07:27:18;20.10;62.10
20057;DHT22;10189;49.546;7.906;2023-07-20T07:29:43;20.10;60.60
20057;DHT22;10189;49.546;7.906;2023-07-20T07:32:10;19.90;60.50
20057;DHT22;10189;49.546;7.906;2023-07-20T07:34:37;19.90;60.50
20057;DHT22;10189;49.546;7.906;2023-07-20T07:37:06;19.80;62.40
20057;DHT22;10189;49.546;7.906;2023-07-20T07:39:32;20.00;60.10
20057;DHT22;10189;49.546;7.906;2023-07-20T07:41:58;19.80;60.80
20057;DHT22;10189;49.546;7.906;2023-07-20T07:44:24;20.00;62.20
20057;DHT22;10189;49.546;7.906;2023-07-20T07:46:50;20.30;60.50
20057;DHT22;10189;49.546;7.906;2023-07-20T07:49:16;20.50;59.60
20057;DHT22;10189;49.546;7.906;2023-07-20T07:51:44;20.40;59.80
20057;DHT22;10189;49.546;7.906;2023-07-20T07:54:10;20.40;58.90
20057;DHT22;10189;49.546;7.906;2023-07-20T07:56:36;20.50;59.00
20057;DHT22;10189;49.546;7.906;2023-07-20T07:59:02;20.40;58.70
20057;DHT22;10189;49.546;7.906;2023-07-20T08:01:28;20.30;58.20
20057;DHT22;10189;49.546;7.906;2023-07-20T08:03:55;20.40;59.70
20057;DHT22;10189;49.546;7.906;2023-07-20T08:06:21;20.40;59.40
20057;DHT22;10189;49.546;7.906;2023-07-20T08:08:49;20.50;60.80
20057;DHT22;10189;49.546;7.906;2023-07-20T08:11:15;20.50;58.40
20057;DHT22;10189;49.546;7.906;2023-07-20T08:13:43;20.60;58.60
20057;DHT22;10189;49.546;7.906;2023-07-20T08:16:09;20.90;59.20
20057;DHT22;10189;49.546;7.906;2023-07-20T08:18:35;21.30;57.60
20057;DHT22;10189;49.546;7.906;2023-07-20T08:21:01;21.30;57.20
20057;DHT22;10189;49.546;7.906;2023-07-20T08:23:26;21.40;57.50
20057;DHT22;10189;49.546;7.906;2023-07-20T08:25:55;21.80;58.80
20057;DHT22;10189;49.546;7.906;2023-07-20T08:28:21;21.80;56.40
20057;DHT22;10189;49.546;7.906;2023-07-20T08:30:49;21.50;55.30
20057;DHT22;10189;49.546;7.906;2023-07-20T08:33:16;21.30;56.60
20057;DHT22;10189;49.546;7.906;2023-07-20T08:35:46;21.60;57.30
20057;DHT22;10189;49.546;7.906;2023-07-20T08:38:12;21.90;56.60
20057;DHT22;10189;49.546;7.906;2023-07-20T08:40:44;21.70;53.80
20057;DHT22;10189;49.546;7.906;2023-07-20T08:43:11;21.80;54.10
20057;DHT22;10189;49.546;7.906;2023-07-20T08:45:39;21.90;55.60
20057;DHT22;10189;49.546;7.906;2023-07-20T08:48:06;22.10;54.40
20057;DHT22;10189;49.546;7.906;2023-07-20T08:50:34;22.50;52.80
20057;DHT22;10189;49.546;7.906;2023-07-20T08:53:01;22.70;53.30
20057;DHT22;10189;49.546;7.906;2023-07-20T08:55:29;22.50;52.20
20057;DHT22;10189;49.546;7.906;2023-07-20T08:57:58;22.10;51.80
20057;DHT22;10189;49.546;7.906;2023-07-20T09:00:26;22.10;54.00
20057;DHT22;10189;49.546;7.906;2023-07-20T09:02:54;22.40;53.90
20057;DHT22;10189;49.546;7.906;2023-07-20T09:05:23;22.90;52.90
20057;DHT22;10189;49.546;7.906;2023-07-20T09:07:51;23.20;50.70
20057;DHT22;10189;49.546;7.906;2023-07-20T09:10:21;23.50;50.30
20057;DHT22;10189;49.546;7.906;2023-07-20T09:12:49;23.60;47.40
20057;DHT22;10189;49.546;7.906;2023-07-20T09:15:15;23.80;47.20
20057;DHT22;10189;49.546;7.906;2023-07-20T09:17:46;23.60;48.30
20057;DHT22;10189;49.546;7.906;2023-07-20T09:20:15;23.50;50.00
20057;DHT22;10189;49.546;7.906;2023-07-20T09:22:42;23.80;50.60
20057;DHT22;10189;49.546;7.906;2023-07-20T09:25:17;24.20;47.50
20057;DHT22;10189;49.546;7.906;2023-07-20T09:27:48;24.40;46.30
20057;DHT22;10189;49.546;7.906;2023-07-20T09:30:16;24.20;45.80
20057;DHT22;10189;49.546;7.906;2023-07-20T09:32:44;24.30;45.80
20057;DHT22;10189;49.546;7.906;2023-07-20T09:35:22;24.20;47.50
20057;DHT22;10189;49.546;7.906;2023-07-20T09:37:58;23.50;48.00
20057;DHT22;10189;49.546;7.906;2023-07-20T09:40:28;23.50;47.80
20057;DHT22;10189;49.546;7.906;2023-07-20T09:42:54;23.70;48.30
20057;DHT22;10189;49.546;7.906;2023-07-20T09:45:33;24.10;48.80
20057;DHT22;10189;49.546;7.906;2023-07-20T09:48:06;24.10;46.50
20057;DHT22;10189;49.546;7.906;2023-07-20T09:50:33;24.00;48.20
20057;DHT22;10189;49.546;7.906;2023-07-20T09:53:01;24.10;45.50
20057;DHT22;10189;49.546;7.906;2023-07-20T09:55:30;23.90;45.20
20057;DHT22;10189;49.546;7.906;2023-07-20T09:57:58;23.60;46.10
20057;DHT22;10189;49.546;7.906;2023-07-20T10:00:25;23.70;46.80
20057;DHT22;10189;49.546;7.906;2023-07-20T10:02:52;23.80;46.10
20057;DHT22;10189;49.546;7.906;2023-07-20T10:05:21;23.60;46.10
20057;DHT22;10189;49.546;7.906;2023-07-20T10:07:49;23.50;48.10
20057;DHT22;10189;49.546;7.906;2023-07-20T10:10:18;23.80;47.30
20057;DHT22;10189;49.546;7.906;2023-07-20T10:12:48;24.30;46.50
20057;DHT22;10189;49.546;7.906;2023-07-20T10:15:33;24.60;45.00
20057;DHT22;10189;49.546;7.906;2023-07-20T10:18:07;24.80;46.00
20057;DHT22;10189;49.546;7.906;2023-07-20T10:20:40;24.90;44.30
20057;DHT22;10189;49.546;7.906;2023-07-20T10:23:07;25.30;45.40
20057;DHT22;10189;49.546;7.906;2023-07-20T10:25:33;25.50;43.20
20057;DHT22;10189;49.546;7.906;2023-07-20T10:28:06;25.70;44.30
20057;DHT22;10189;49.546;7.906;2023-07-20T10:30:34;25.30;43.90
20057;DHT22;10189;49.546;7.906;2023-07-20T10:33:02;25.10;43.60
20057;DHT22;10189;49.546;7.906;2023-07-20T10:35:30;24.50;44.50
20057;DHT22;10189;49.546;7.906;2023-07-20T10:38:03;24.70;44.20
20057;DHT22;10189;49.546;7.906;2023-07-20T10:40:31;24.70;43.50
20057;DHT22;10189;49.546;7.906;2023-07-20T10:43:02;24.90;43.50
20057;DHT22;10189;49.546;7.906;2023-07-20T10:45:40;25.10;44.60
20057;DHT22;10189;49.546;7.906;2023-07-20T10:48:22;25.30;42.20
20057;DHT22;10189;49.546;7.906;2023-07-20T10:51:08;25.30;41.50
20057;DHT22;10189;49.546;7.906;2023-07-20T10:53:40;24.70;41.90
20057;DHT22;10189;49.546;7.906;2023-07-20T10:56:14;24.20;43.20
20057;DHT22;10189;49.546;7.906;2023-07-20T10:58:45;24.30;45.30
20057;DHT22;10189;49.546;7.906;2023-07-20T11:01:16;24.40;43.40
20057;DHT22;10189;49.546;7.906;2023-07-20T11:03:43;24.00;43.80
20057;DHT22;10189;49.546;7.906;2023-07-20T11:09:09;24.00;43.80
20057;DHT22;10189;49.546;7.906;2023-07-20T11:11:44;24.50;43.40
20057;DHT22;10189;49.546;7.906;2023-07-20T11:14:26;25.00;41.40
20057;DHT22;10189;49.546;7.906;2023-07-20T11:16:53;25.20;41.00
20057;DHT22;10189;49.546;7.906;2023-07-20T11:19:21;24.80;41.80
20057;DHT22;10189;49.546;7.906;2023-07-20T11:21:54;24.90;42.60
20057;DHT22;10189;49.546;7.906;2023-07-20T11:24:23;25.20;41.70
20057;DHT22;10189;49.546;7.906;2023-07-20T11:26:51;25.00;42.30
20057;DHT22;10189;49.546;7.906;2023-07-20T11:29:23;24.70;42.30
20057;DHT22;10189;49.546;7.906;2023-07-20T11:31:51;24.20;42.40
20057;DHT22;10189;49.546;7.906;2023-07-20T11:34:18;24.40;42.50
20057;DHT22;10189;49.546;7.906;2023-07-20T11:36:50;24.50;41.40
20057;DHT22;10189;49.546;7.906;2023-07-20T11:39:19;24.40;42.60
20057;DHT22;10189;49.546;7.906;2023-07-20T11:41:50;24.00;44.10
20057;DHT22;10189;49.546;7.906;2023-07-20T11:44:18;23.70;46.10
20057;DHT22;10189;49.546;7.906;2023-07-20T11:46:46;23.70;45.20
20057;DHT22;10189;49.546;7.906;2023-07-20T11:49:12;23.70;45.70
20057;DHT22;10189;49.546;7.906;2023-07-20T11:51:40;23.80;44.00
20057;DHT22;10189;49.546;7.906;2023-07-20T11:54:08;23.70;45.00
20057;DHT22;10189;49.546;7.906;2023-07-20T11:56:34;23.80;45.70
20057;DHT22;10189;49.546;7.906;2023-07-20T11:59:00;23.80;42.80
20057;DHT22;10189;49.546;7.906;2023-07-20T12:01:29;23.80;43.90
20057;DHT22;10189;49.546;7.906;2023-07-20T12:04:02;23.80;43.70
20057;DHT22;10189;49.546;7.906;2023-07-20T12:06:29;23.90;44.40
20057;DHT22;10189;49.546;7.906;2023-07-20T12:08:57;23.60;45.60
20057;DHT22;10189;49.546;7.906;2023-07-20T12:11:50;23.90;44.80
20057;DHT22;10189;49.546;7.906;2023-07-20T12:14:16;24.10;43.60
20057;DHT22;10189;49.546;7.906;2023-07-20T12:16:42;24.10;44.60
20057;DHT22;10189;49.546;7.906;2023-07-20T12:19:10;24.50;44.00
20057;DHT22;10189;49.546;7.906;2023-07-20T12:21:41;24.70;41.50
20057;DHT22;10189;49.546;7.906;2023-07-20T12:24:08;24.50;42.70
20057;DHT22;10189;49.546;7.906;2023-07-20T12:26:36;24.40;42.50
20057;DHT22;10189;49.546;7.906;2023-07-20T12:29:02;24.50;42.30
20057;DHT22;10189;49.546;7.906;2023-07-20T12:31:30;24.30;42.60
20057;DHT22;10189;49.546;7.906;2023-07-20T12:33:57;24.10;43.10
20057;DHT22;10189;49.546;7.906;2023-07-20T12:36:24;24.40;44.20
20057;DHT22;10189;49.546;7.906;2023-07-20T12:38:50;24.60;41.10
20057;DHT22;10189;49.546;7.906;2023-07-20T12:41:16;24.70;41.80
20057;DHT22;10189;49.546;7.906;2023-07-20T12:43:44;24.60;42.40
20057;DHT22;10189;49.546;7.906;2023-07-20T12:46:11;24.60;42.70
20057;DHT22;10189;49.546;7.906;2023-07-20T12:48:38;24.40;42.50
20057;DHT22;10189;49.546;7.906;2023-07-20T12:51:07;24.40;42.40
20057;DHT22;10189;49.546;7.906;2023-07-20T12:53:34;24.40;42.30
20057;DHT22;10189;49.546;7.906;2023-07-20T12:56:00;24.20;43.10
20057;DHT22;10189;49.546;7.906;2023-07-20T12:58:27;24.60;42.40
20057;DHT22;10189;49.546;7.906;2023-07-20T13:00:53;25.00;42.00
20057;DHT22;10189;49.546;7.906;2023-07-20T13:03:19;25.40;40.90
20057;DHT22;10189;49.546;7.906;2023-07-20T13:05:46;25.80;39.70
20057;DHT22;10189;49.546;7.906;2023-07-20T13:08:13;25.70;40.20
20057;DHT22;10189;49.546;7.906;2023-07-20T13:10:40;25.70;39.80
20057;DHT22;10189;49.546;7.906;2023-07-20T13:13:06;25.70;38.10
20057;DHT22;10189;49.546;7.906;2023-07-20T13:15:41;25.40;37.20
20057;DHT22;10189;49.546;7.906;2023-07-20T13:18:08;25.50;38.90
20057;DHT22;10189;49.546;7.906;2023-07-20T13:20:34;25.50;39.30
20057;DHT22;10189;49.546;7.906;2023-07-20T13:22:59;25.50;38.70
20057;DHT22;10189;49.546;7.906;2023-07-20T13:25:25;25.50;39.90
20057;DHT22;10189;49.546;7.906;2023-07-20T13:27:51;25.50;39.00
20057;DHT22;10189;49.546;7.906;2023-07-20T13:30:17;25.40;39.00
20057;DHT22;10189;49.546;7.906;2023-07-20T13:32:46;25.00;39.50
20057;DHT22;10189;49.546;7.906;2023-07-20T13:35:12;25.00;39.80
20057;DHT22;10189;49.546;7.906;2023-07-20T13:37:38;25.20;39.80
20057;DHT22;10189;49.546;7.906;2023-07-20T13:40:05;25.50;40.30
20057;DHT22;10189;49.546;7.906;2023-07-20T13:42:32;25.40;38.90
20057;DHT22;10189;49.546;7.906;2023-07-20T13:44:58;25.50;38.50
20057;DHT22;10189;49.546;7.906;2023-07-20T13:47:24;25.20;39.20
20057;DHT22;10189;49.546;7.906;2023-07-20T13:49:51;24.90;39.10
20057;DHT22;10189;49.546;7.906;2023-07-20T13:52:17;24.70;39.90
20057;DHT22;10189;49.546;7.906;2023-07-20T13:54:43;24.70;39.30
20057;DHT22;10189;49.546;7.906;2023-07-20T13:57:09;24.70;42.20
20057;DHT22;10189;49.546;7.906;2023-07-20T13:59:35;24.70;39.80
20057;DHT22;10189;49.546;7.906;2023-07-20T14:02:01;24.50;40.30
20057;DHT22;10189;49.546;7.906;2023-07-20T14:04:26;24.80;42.80
20057;DHT22;10189;49.546;7.906;2023-07-20T14:06:52;25.40;41.40
20057;DHT22;10189;49.546;7.906;2023-07-20T14:09:18;25.70;39.20
20057;DHT22;10189;49.546;7.906;2023-07-20T14:11:44;25.50;39.20
20057;DHT22;10189;49.546;7.906;2023-07-20T14:14:10;25.40;38.90
20057;DHT22;10189;49.546;7.906;2023-07-20T14:16:36;25.10;38.70
20057;DHT22;10189;49.546;7.906;2023-07-20T14:19:02;24.80;38.80
20057;DHT22;10189;49.546;7.906;2023-07-20T14:21:30;24.80;39.10
20057;DHT22;10189;49.546;7.906;2023-07-20T14:23:56;24.90;40.30
20057;DHT22;10189;49.546;7.906;2023-07-20T14:26:23;24.90;40.70
20057;DHT22;10189;49.546;7.906;2023-07-20T14:28:49;25.00;39.10
20057;DHT22;10189;49.546;7.906;2023-07-20T14:31:15;25.30;40.10
20057;DHT22;10189;49.546;7.906;2023-07-20T14:33:41;25.50;38.40
20057;DHT22;10189;49.546;7.906;2023-07-20T14:36:07;25.80;37.70
20057;DHT22;10189;49.546;7.906;2023-07-20T14:38:34;25.90;36.60
20057;DHT22;10189;49.546;7.906;2023-07-20T14:41:00;26.10;37.40
20057;DHT22;10189;49.546;7.906;2023-07-20T14:43:26;26.10;37.10
20057;DHT22;10189;49.546;7.906;2023-07-20T14:45:52;25.40;38.30
20057;DHT22;10189;49.546;7.906;2023-07-20T14:48:20;25.30;38.00
20057;DHT22;10189;49.546;7.906;2023-07-20T14:50:45;25.30;38.00
20057;DHT22;10189;49.546;7.906;2023-07-20T14:53:13;25.30;38.40
20057;DHT22;10189;49.546;7.906;2023-07-20T14:55:41;25.20;38.70
20057;DHT22;10189;49.546;7.906;2023-07-20T14:58:08;24.90;39.10
20057;DHT22;10189;49.546;7.906;2023-07-20T15:00:34;25.00;39.20
20057;DHT22;10189;49.546;7.906;2023-07-20T15:03:00;24.80;38.40
20057;DHT22;10189;49.546;7.906;2023-07-20T15:05:26;24.90;39.60
20057;DHT22;10189;49.546;7.906;2023-07-20T15:07:52;25.20;39.60
20057;DHT22;10189;49.546;7.906;2023-07-20T15:10:19;25.50;38.20
20057;DHT22;10189;49.546;7.906;2023-07-20T15:12:45;25.70;38.50
20057;DHT22;10189;49.546;7.906;2023-07-20T15:15:14;25.80;38.00
20057;DHT22;10189;49.546;7.906;2023-07-20T15:17:43;25.70;36.70
20057;DHT22;10189;49.546;7.906;2023-07-20T15:20:11;25.40;36.90
20057;DHT22;10189;49.546;7.906;2023-07-20T15:22:39;25.30;36.40
20057;DHT22;10189;49.546;7.906;2023-07-20T15:25:06;25.40;36.20
20057;DHT22;10189;49.546;7.906;2023-07-20T15:27:33;25.30;37.70
20057;DHT22;10189;49.546;7.906;2023-07-20T15:30:00;25.30;38.60
20057;DHT22;10189;49.546;7.906;2023-07-20T15:32:26;25.10;36.10
20057;DHT22;10189;49.546;7.906;2023-07-20T15:34:52;25.00;37.10
20057;DHT22;10189;49.546;7.906;2023-07-20T15:37:18;24.80;37.80
20057;DHT22;10189;49.546;7.906;2023-07-20T15:39:43;24.70;37.50
20057;DHT22;10189;49.546;7.906;2023-07-20T15:42:13;24.70;37.60
20057;DHT22;10189;49.546;7.906;2023-07-20T15:44:38;24.60;38.20